Time;durP1;ratioP1;P1;durP2;ratioP2;P2;SDS_P1;SDS_P2;PMS_P1;PMS_P2;Temp;Humidity;BMP_temperature;BMP_pressure;BME280_temperature;BME280_humidity;BME280_pressure;Samples;Min_cycle;Max_cycle;Signal;HPM_P1;HPM_P2
2022/12/11 00:02:19;;;;;;;9.98;7.30;;;;;;;;;;5116669;28;20225;-61
2022/12/11 00:04:46;;;;;;;10.80;8.18;;;;;;;;;;5116650;28;20551;-61
2022/12/11 00:07:14;;;;;;;12.70;9.38;;;;;;;;;;5116969;28;20199;-61
2022/12/11 00:09:41;;;;;;;13.02;8.95;;;;;;;;;;5116653;28;20287;-61
2022/12/11 00:12:08;;;;;;;15.15;9.13;;;;;;;;;;5116507;28;20220;-61
2022/12/11 00:14:35;;;;;;;14.23;8.75;;;;;;;;;;5116348;28;20635;-61
2022/12/11 00:17:02;;;;;;;15.38;9.98;;;;;;;;;;5116326;28;20224;-61
2022/12/11 00:19:29;;;;;;;11.27;8.38;;;;;;;;;;5116144;28;20223;-61
2022/12/11 00:21:56;;;;;;;10.80;8.35;;;;;;;;;;5116380;28;20284;-61
2022/12/11 00:24:24;;;;;;;12.30;9.00;;;;;;;;;;5116127;28;20719;-61
2022/12/11 00:26:51;;;;;;;12.60;8.95;;;;;;;;;;5116318;28;20280;-61
2022/12/11 00:29:18;;;;;;;12.55;9.38;;;;;;;;;;5116185;28;20213;-61
2022/12/11 00:31:45;;;;;;;17.45;9.98;;;;;;;;;;5116053;28;20192;-61
2022/12/11 00:34:12;;;;;;;14.32;10.23;;;;;;;;;;5115854;28;20203;-61
2022/12/11 00:36:39;;;;;;;13.48;9.35;;;;;;;;;;5116127;28;20357;-61
2022/12/11 00:39:06;;;;;;;12.95;9.32;;;;;;;;;;5115760;28;20683;-61
2022/12/11 00:41:35;;;;;;;12.52;9.57;;;;;;;;;;5115949;28;20270;-61
2022/12/11 00:44:01;;;;;;;13.93;9.80;;;;;;;;;;5115704;28;20192;-61
2022/12/11 00:46:28;;;;;;;13.73;9.15;;;;;;;;;;5115520;28;20248;-61
2022/12/11 00:48:55;;;;;;;14.93;9.63;;;;;;;;;;5115381;28;20197;-61
2022/12/11 00:51:22;;;;;;;13.63;9.20;;;;;;;;;;5115775;28;20192;-61
2022/12/11 00:53:49;;;;;;;18.60;10.65;;;;;;;;;;5115759;28;20191;-62
2022/12/11 00:56:17;;;;;;;17.13;10.80;;;;;;;;;;5115519;28;20662;-61
2022/12/11 00:58:47;;;;;;;12.88;9.70;;;;;;;;;;5115439;28;20284;-61
2022/12/11 01:01:15;;;;;;;15.98;10.68;;;;;;;;;;5115490;28;20189;-61
2022/12/11 01:03:42;;;;;;;16.55;9.88;;;;;;;;;;5115612;28;20618;-61
2022/12/11 01:06:13;;;;;;;15.40;10.30;;;;;;;;;;5115521;28;20189;-59
2022/12/11 01:08:40;;;;;;;15.07;9.77;;;;;;;;;;5115567;28;20192;-58
2022/12/11 01:11:07;;;;;;;15.20;9.43;;;;;;;;;;5115498;28;20623;-59
2022/12/11 01:13:34;;;;;;;14.55;9.73;;;;;;;;;;5115164;28;20218;-59
2022/12/11 01:16:06;;;;;;;14.75;9.38;;;;;;;;;;5115368;28;20339;-58
2022/12/11 01:18:33;;;;;;;16.80;9.82;;;;;;;;;;5115496;28;20200;-59
2022/12/11 01:21:00;;;;;;;14.98;9.65;;;;;;;;;;5115105;28;20303;-58
2022/12/11 01:23:27;;;;;;;16.90;10.75;;;;;;;;;;5115165;28;20192;-58
2022/12/11 01:25:54;;;;;;;16.73;9.70;;;;;;;;;;5114944;28;20195;-58
2022/12/11 01:28:20;;;;;;;16.60;10.32;;;;;;;;;;5114809;28;20284;-58
2022/12/11 01:30:47;;;;;;;12.75;8.82;;;;;;;;;;5115117;28;20192;-58
2022/12/11 01:33:15;;;;;;;16.73;11.52;;;;;;;;;;5114969;28;20188;-58
2022/12/11 01:35:42;;;;;;;18.27;10.90;;;;;;;;;;5114857;28;20200;-58
2022/12/11 01:38:10;;;;;;;15.82;10.70;;;;;;;;;;5114801;28;20185;-59
2022/12/11 01:40:37;;;;;;;17.55;10.65;;;;;;;;;;5114607;28;20212;-58
2022/12/11 01:43:04;;;;;;;16.63;10.30;;;;;;;;;;5114640;28;20215;-58
2022/12/11 01:45:40;;;;;;;20.50;10.98;;;;;;;;;;5114777;28;20200;-58
2022/12/11 01:48:09;;;;;;;15.40;10.00;;;;;;;;;;5114359;28;20226;-58
2022/12/11 01:50:39;;;;;;;16.23;10.75;;;;;;;;;;5114426;28;20193;-58
2022/12/11 01:53:07;;;;;;;17.00;10.18;;;;;;;;;;5114512;28;20193;-58
2022/12/11 01:55:36;;;;;;;12.82;9.88;;;;;;;;;;5114363;28;20200;-58
2022/12/11 01:58:03;;;;;;;18.85;11.60;;;;;;;;;;5114513;28;20283;-58
2022/12/11 02:00:30;;;;;;;15.35;11.25;;;;;;;;;;5113506;28;20212;-58
2022/12/11 02:02:57;;;;;;;13.48;9.82;;;;;;;;;;5114286;28;20188;-58
2022/12/11 02:05:24;;;;;;;16.27;11.10;;;;;;;;;;5114228;28;20275;-58
2022/12/11 02:07:54;;;;;;;14.90;10.80;;;;;;;;;;5114024;28;20682;-58
2022/12/11 02:10:22;;;;;;;17.92;11.90;;;;;;;;;;5114304;28;20197;-58
2022/12/11 02:12:53;;;;;;;17.60;10.48;;;;;;;;;;5114149;28;20192;-58
2022/12/11 02:15:25;;;;;;;18.85;10.48;;;;;;;;;;5113999;28;20234;-58
2022/12/11 02:17:55;;;;;;;14.85;10.32;;;;;;;;;;5113927;28;20631;-58
2022/12/11 02:20:23;;;;;;;18.20;11.18;;;;;;;;;;5113722;28;20578;-58
2022/12/11 02:22:59;;;;;;;14.23;11.23;;;;;;;;;;5113951;28;20195;-58
2022/12/11 02:25:31;;;;;;;17.10;10.60;;;;;;;;;;5114215;28;20194;-58
2022/12/11 02:28:08;;;;;;;17.23;11.38;;;;;;;;;;5113726;28;20192;-58
2022/12/11 02:30:37;;;;;;;20.48;10.75;;;;;;;;;;5113701;28;20192;-58
2022/12/11 02:33:04;;;;;;;17.15;12.05;;;;;;;;;;5113562;28;20283;-58
2022/12/11 02:35:34;;;;;;;16.85;11.20;;;;;;;;;;5113743;28;20288;-61
2022/12/11 02:38:02;;;;;;;20.83;11.40;;;;;;;;;;5113657;28;20617;-61
2022/12/11 02:40:31;;;;;;;17.38;11.60;;;;;;;;;;5113441;28;20622;-61
2022/12/11 02:42:59;;;;;;;18.95;12.27;;;;;;;;;;5113482;28;20280;-61
2022/12/11 02:45:29;;;;;;;18.38;11.30;;;;;;;;;;5113482;28;20189;-61
2022/12/11 02:47:58;;;;;;;16.15;11.07;;;;;;;;;;5113354;28;20564;-61
2022/12/11 02:50:25;;;;;;;17.02;11.93;;;;;;;;;;5113624;28;20279;-61
2022/12/11 02:52:54;;;;;;;20.42;12.80;;;;;;;;;;5113519;28;20233;-61
2022/12/11 02:55:22;;;;;;;18.83;12.85;;;;;;;;;;5113899;28;20231;-61
2022/12/11 02:57:51;;;;;;;21.95;13.82;;;;;;;;;;5113311;28;20188;-61
2022/12/11 03:00:18;;;;;;;17.00;10.98;;;;;;;;;;5113647;28;20307;-61
2022/12/11 03:02:46;;;;;;;20.10;13.20;;;;;;;;;;5113222;28;20740;-61
2022/12/11 03:05:15;;;;;;;17.88;12.20;;;;;;;;;;5113365;28;20196;-61
2022/12/11 03:07:42;;;;;;;18.50;12.23;;;;;;;;;;5113220;28;20196;-61
2022/12/11 03:10:10;;;;;;;20.63;12.10;;;;;;;;;;5113705;28;20192;-61
2022/12/11 03:12:39;;;;;;;20.27;12.80;;;;;;;;;;5117297;28;20195;-61
2022/12/11 03:15:07;;;;;;;19.70;13.27;;;;;;;;;;5117569;28;20544;-61
2022/12/11 03:17:36;;;;;;;20.73;12.15;;;;;;;;;;5117432;28;20188;-61
2022/12/11 03:20:08;;;;;;;22.83;13.80;;;;;;;;;;5117291;28;20208;-61
2022/12/11 03:22:37;;;;;;;18.92;13.55;;;;;;;;;;5117241;28;20279;-61
2022/12/11 03:25:07;;;;;;;21.08;12.27;;;;;;;;;;5117243;28;20222;-61
2022/12/11 03:27:37;;;;;;;15.57;11.45;;;;;;;;;;5117094;28;20276;-61
2022/12/11 03:30:05;;;;;;;19.38;12.77;;;;;;;;;;5117198;28;20196;-61
2022/12/11 03:32:37;;;;;;;20.80;12.73;;;;;;;;;;5117132;28;20282;-61
2022/12/11 03:35:07;;;;;;;16.98;11.70;;;;;;;;;;5117120;28;20192;-61
2022/12/11 03:37:37;;;;;;;17.67;11.70;;;;;;;;;;5117036;28;20283;-61
2022/12/11 03:40:06;;;;;;;15.63;11.05;;;;;;;;;;5116921;28;20209;-61
2022/12/11 03:42:34;;;;;;;16.20;11.00;;;;;;;;;;5117108;28;20188;-61
2022/12/11 03:45:01;;;;;;;18.80;11.95;;;;;;;;;;5117075;28;20287;-61
2022/12/11 03:47:29;;;;;;;16.88;11.55;;;;;;;;;;5116881;28;20647;-61
2022/12/11 03:49:57;;;;;;;19.00;12.43;;;;;;;;;;5116795;28;20622;-61
2022/12/11 03:52:27;;;;;;;20.20;11.07;;;;;;;;;;5116972;28;20615;-61
2022/12/11 03:54:55;;;;;;;15.55;12.65;;;;;;;;;;5116897;28;20193;-61
2022/12/11 03:57:24;;;;;;;17.85;11.65;;;;;;;;;;5116852;28;20615;-61
2022/12/11 03:59:51;;;;;;;19.25;11.73;;;;;;;;;;5116620;28;20221;-61
2022/12/11 04:02:18;;;;;;;15.93;10.82;;;;;;;;;;5116626;28;20279;-61
2022/12/11 04:04:45;;;;;;;16.40;12.20;;;;;;;;;;5116757;28;20281;-61
2022/12/11 04:07:12;;;;;;;16.27;11.15;;;;;;;;;;5116937;28;20189;-61
2022/12/11 04:09:40;;;;;;;16.38;10.95;;;;;;;;;;5116618;28;20547;-61
2022/12/11 04:12:07;;;;;;;19.65;10.98;;;;;;;;;;5116519;28;20281;-61
2022/12/11 04:25:29;;;;;;;15.02;9.93;;;;;;;;;;5116666;28;20556;-61
2022/12/11 04:27:56;;;;;;;16.02;11.27;;;;;;;;;;5116322;28;20279;-61
2022/12/11 04:30:24;;;;;;;15.38;9.90;;;;;;;;;;5116171;28;20230;-61
2022/12/11 04:32:52;;;;;;;16.83;12.23;;;;;;;;;;5116168;28;20235;-61
2022/12/11 04:35:19;;;;;;;19.88;10.65;;;;;;;;;;5116068;28;20619;-61
2022/12/11 04:37:46;;;;;;;17.55;11.00;;;;;;;;;;5115882;28;20189;-61
2022/12/11 04:40:15;;;;;;;14.23;11.00;;;;;;;;;;5115716;28;20230;-61
2022/12/11 04:42:43;;;;;;;16.73;10.90;;;;;;;;;;5115999;28;20608;-61
2022/12/11 04:45:11;;;;;;;21.83;11.00;;;;;;;;;;5115995;28;20220;-61
2022/12/11 04:47:38;;;;;;;14.30;11.35;;;;;;;;;;5115606;28;20220;-61
2022/12/11 04:50:06;;;;;;;17.52;11.23;;;;;;;;;;5115766;28;20666;-61
2022/12/11 04:52:33;;;;;;;15.60;10.65;;;;;;;;;;5115557;28;20275;-61
2022/12/11 04:55:00;;;;;;;13.27;10.73;;;;;;;;;;5115807;28;20285;-61
2022/12/11 04:57:27;;;;;;;16.30;11.23;;;;;;;;;;5115734;28;20275;-61
2022/12/11 04:59:55;;;;;;;16.05;11.57;;;;;;;;;;5115529;28;20276;-61
2022/12/11 05:02:22;;;;;;;18.33;11.48;;;;;;;;;;5115502;28;20193;-61
2022/12/11 05:04:49;;;;;;;17.02;11.35;;;;;;;;;;5115373;28;20292;-61
2022/12/11 05:07:16;;;;;;;16.23;10.73;;;;;;;;;;5115557;28;20188;-61
2022/12/11 05:09:42;;;;;;;16.20;11.43;;;;;;;;;;5115352;28;20309;-61
2022/12/11 05:12:09;;;;;;;23.08;12.32;;;;;;;;;;5115426;28;20188;-61
2022/12/11 05:14:36;;;;;;;20.65;13.50;;;;;;;;;;5115322;28;20546;-61
2022/12/11 05:17:04;;;;;;;16.55;11.60;;;;;;;;;;5115200;28;20195;-61
2022/12/11 05:19:31;;;;;;;17.15;11.90;;;;;;;;;;5115234;28;20316;-61
2022/12/11 05:21:59;;;;;;;18.08;11.40;;;;;;;;;;5115319;28;20220;-61
2022/12/11 05:24:26;;;;;;;18.65;12.52;;;;;;;;;;5115241;28;20283;-61
2022/12/11 05:26:53;;;;;;;16.20;11.30;;;;;;;;;;5115155;28;20275;-61
2022/12/11 05:29:20;;;;;;;15.50;10.85;;;;;;;;;;5115428;28;20184;-61
2022/12/11 05:31:47;;;;;;;17.10;11.60;;;;;;;;;;5115005;28;20275;-61
2022/12/11 05:34:15;;;;;;;17.80;11.10;;;;;;;;;;5114626;28;20283;-61
2022/12/11 05:36:42;;;;;;;19.00;11.52;;;;;;;;;;5115205;28;20193;-61
2022/12/11 05:39:10;;;;;;;14.82;10.25;;;;;;;;;;5114834;28;20193;-61
2022/12/11 05:41:37;;;;;;;20.13;12.25;;;;;;;;;;5114991;28;20222;-61
2022/12/11 05:44:04;;;;;;;21.58;12.32;;;;;;;;;;5114653;28;20529;-61
2022/12/11 05:46:31;;;;;;;16.38;10.10;;;;;;;;;;5114429;28;20219;-61
2022/12/11 05:49:00;;;;;;;17.10;11.68;;;;;;;;;;5114535;28;20280;-61
2022/12/11 05:51:28;;;;;;;15.07;9.65;;;;;;;;;;5114864;28;20195;-61
2022/12/11 05:53:56;;;;;;;14.80;10.98;;;;;;;;;;5114554;28;20279;-61
2022/12/11 05:56:25;;;;;;;13.98;10.15;;;;;;;;;;5114724;28;20188;-61
2022/12/11 05:58:52;;;;;;;15.30;11.10;;;;;;;;;;5114388;28;20283;-61
2022/12/11 06:01:22;;;;;;;15.75;10.25;;;;;;;;;;5114431;28;20678;-61
2022/12/11 06:03:49;;;;;;;13.13;10.10;;;;;;;;;;5114210;28;20652;-61
2022/12/11 06:06:17;;;;;;;15.48;10.90;;;;;;;;;;5114374;28;20283;-61
2022/12/11 06:08:45;;;;;;;14.82;9.80;;;;;;;;;;5114232;28;20547;-61
2022/12/11 06:11:12;;;;;;;15.90;9.90;;;;;;;;;;5114298;28;20447;-61
2022/12/11 06:13:40;;;;;;;16.70;10.30;;;;;;;;;;5114062;28;20196;-61
2022/12/11 06:16:08;;;;;;;17.48;11.15;;;;;;;;;;5114150;28;20235;-61
2022/12/11 06:18:36;;;;;;;19.58;11.55;;;;;;;;;;5114090;28;20193;-61
2022/12/11 06:21:03;;;;;;;13.13;9.85;;;;;;;;;;5113943;28;20212;-61
2022/12/11 06:23:30;;;;;;;18.42;11.75;;;;;;;;;;5113974;28;20184;-61
2022/12/11 06:25:58;;;;;;;17.58;11.05;;;;;;;;;;5113890;28;20188;-61
2022/12/11 06:28:25;;;;;;;16.48;10.68;;;;;;;;;;5114221;28;20281;-61
2022/12/11 06:30:52;;;;;;;13.68;9.80;;;;;;;;;;5114196;28;20292;-61
2022/12/11 06:33:19;;;;;;;19.27;10.95;;;;;;;;;;5113848;28;20191;-61
2022/12/11 06:35:45;;;;;;;20.40;11.00;;;;;;;;;;5113622;28;20733;-61
2022/12/11 06:38:12;;;;;;;17.17;11.90;;;;;;;;;;5113772;28;20196;-61
2022/12/11 06:40:39;;;;;;;17.73;10.88;;;;;;;;;;5113850;28;20277;-61
2022/12/11 06:43:07;;;;;;;16.40;10.50;;;;;;;;;;5113845;28;20769;-61
2022/12/11 06:45:34;;;;;;;18.55;11.98;;;;;;;;;;5113276;28;20620;-61
2022/12/11 06:48:01;;;;;;;15.60;11.27;;;;;;;;;;5113413;28;20306;-61
2022/12/11 06:50:28;;;;;;;15.73;11.00;;;;;;;;;;5113495;28;20237;-61
2022/12/11 06:52:56;;;;;;;15.35;10.95;;;;;;;;;;5113551;28;20284;-61
2022/12/11 06:55:23;;;;;;;13.68;9.85;;;;;;;;;;5113409;28;20198;-61
2022/12/11 06:57:50;;;;;;;12.52;9.73;;;;;;;;;;5113641;28;20274;-61
2022/12/11 07:00:18;;;;;;;17.48;9.60;;;;;;;;;;5113562;28;20194;-61
2022/12/11 07:02:45;;;;;;;11.55;9.73;;;;;;;;;;5113403;28;20306;-61
2022/12/11 07:05:12;;;;;;;12.55;8.30;;;;;;;;;;5113467;28;20287;-61
2022/12/11 07:07:39;;;;;;;15.45;9.68;;;;;;;;;;5113383;28;20275;-61
2022/12/11 07:10:06;;;;;;;19.00;9.63;;;;;;;;;;5113278;28;20194;-61
2022/12/11 07:12:33;;;;;;;15.50;10.13;;;;;;;;;;5113513;28;20275;-60
2022/12/11 07:15:00;;;;;;;14.40;10.48;;;;;;;;;;5113436;28;20190;-61
2022/12/11 07:17:28;;;;;;;16.05;9.48;;;;;;;;;;5113799;28;20280;-61
2022/12/11 07:19:55;;;;;;;13.82;9.20;;;;;;;;;;5113257;28;20188;-61
2022/12/11 07:22:22;;;;;;;15.18;10.18;;;;;;;;;;5113123;28;20640;-61
2022/12/11 07:24:49;;;;;;;12.60;9.60;;;;;;;;;;5113087;28;20194;-61
2022/12/11 07:27:16;;;;;;;12.52;8.75;;;;;;;;;;5113530;28;20184;-61
2022/12/11 07:29:43;;;;;;;12.35;9.18;;;;;;;;;;5113301;28;20307;-61
2022/12/11 07:32:10;;;;;;;9.82;8.68;;;;;;;;;;5112992;28;20700;-61
2022/12/11 07:34:39;;;;;;;12.13;9.38;;;;;;;;;;5113074;28;20190;-61
2022/12/11 07:37:06;;;;;;;12.90;8.82;;;;;;;;;;5113027;28;20695;-61
2022/12/11 07:39:33;;;;;;;11.52;8.35;;;;;;;;;;5113193;28;20283;-61
2022/12/11 07:42:00;;;;;;;13.30;9.30;;;;;;;;;;5113089;28;20222;-61
2022/12/11 07:44:27;;;;;;;12.45;9.38;;;;;;;;;;5113095;28;20184;-61
2022/12/11 07:46:54;;;;;;;11.80;8.73;;;;;;;;;;5112852;28;20746;-61
2022/12/11 07:49:20;;;;;;;10.82;8.05;;;;;;;;;;5112927;28;20276;-61
2022/12/11 07:51:49;;;;;;;11.52;8.05;;;;;;;;;;5112799;28;20196;-61
2022/12/11 07:54:16;;;;;;;11.25;8.13;;;;;;;;;;5113135;28;20618;-61
2022/12/11 07:56:44;;;;;;;16.65;9.77;;;;;;;;;;5112943;28;20207;-61
2022/12/11 07:59:11;;;;;;;15.45;9.15;;;;;;;;;;5116497;28;20184;-61
2022/12/11 08:01:39;;;;;;;14.68;9.25;;;;;;;;;;5116381;28;20705;-61
2022/12/11 08:04:06;;;;;;;11.90;8.35;;;;;;;;;;5116417;28;20278;-61
2022/12/11 08:06:35;;;;;;;12.10;9.30;;;;;;;;;;5116688;28;20245;-61
2022/12/11 08:09:04;;;;;;;17.17;8.68;;;;;;;;;;5116563;28;20214;-61
2022/12/11 08:11:31;;;;;;;14.05;9.30;;;;;;;;;;5116515;28;20647;-61
2022/12/11 08:13:59;;;;;;;12.23;8.35;;;;;;;;;;5116318;28;20275;-61
2022/12/11 08:16:26;;;;;;;13.23;8.90;;;;;;;;;;5116253;28;20185;-61
2022/12/11 08:18:53;;;;;;;13.38;9.45;;;;;;;;;;5116344;28;20733;-61
2022/12/11 08:21:21;;;;;;;14.65;9.20;;;;;;;;;;5116244;28;20218;-61
2022/12/11 08:23:48;;;;;;;13.05;8.43;;;;;;;;;;5116233;28;20559;-60
2022/12/11 08:26:18;;;;;;;13.18;9.25;;;;;;;;;;5116104;28;20668;-61
2022/12/11 08:28:44;;;;;;;11.73;8.90;;;;;;;;;;5116008;28;20192;-61
2022/12/11 08:31:13;;;;;;;15.77;11.13;;;;;;;;;;5115973;28;20192;-61
2022/12/11 08:33:40;;;;;;;13.77;9.30;;;;;;;;;;5115989;28;20184;-61
2022/12/11 08:36:08;;;;;;;11.30;8.70;;;;;;;;;;5115809;28;20188;-61
2022/12/11 08:38:35;;;;;;;14.77;9.77;;;;;;;;;;5115701;28;20275;-61
2022/12/11 08:41:08;;;;;;;15.48;9.65;;;;;;;;;;5115726;28;20279;-61
2022/12/11 08:43:36;;;;;;;15.50;9.50;;;;;;;;;;5115999;28;20195;-61
2022/12/11 08:46:03;;;;;;;12.32;8.90;;;;;;;;;;5115988;28;20538;-61
2022/12/11 08:48:30;;;;;;;16.80;9.77;;;;;;;;;;5115976;28;20184;-61
2022/12/11 08:51:00;;;;;;;13.57;9.48;;;;;;;;;;5115833;28;20645;-61
2022/12/11 08:53:27;;;;;;;14.52;10.90;;;;;;;;;;5115472;28;20712;-61
2022/12/11 08:55:54;;;;;;;16.30;10.40;;;;;;;;;;5115679;28;20282;-60
2022/12/11 08:58:21;;;;;;;15.30;10.30;;;;;;;;;;5115522;28;20702;-61
2022/12/11 09:00:49;;;;;;;13.95;9.27;;;;;;;;;;5115647;28;20283;-61
2022/12/11 09:03:16;;;;;;;16.00;10.95;;;;;;;;;;5115537;28;20236;-61
2022/12/11 09:05:43;;;;;;;12.23;9.40;;;;;;;;;;5115492;28;20286;-61
2022/12/11 09:08:10;;;;;;;13.90;9.73;;;;;;;;;;5114811;28;20197;-61
2022/12/11 09:10:36;;;;;;;15.18;10.05;;;;;;;;;;5115191;28;20189;-61
2022/12/11 09:13:04;;;;;;;20.30;10.00;;;;;;;;;;5115183;28;20555;-61
2022/12/11 09:15:31;;;;;;;14.65;10.32;;;;;;;;;;5115371;28;20676;-61
2022/12/11 09:17:59;;;;;;;13.85;9.40;;;;;;;;;;5115207;28;20495;-61
2022/12/11 09:20:26;;;;;;;17.27;11.75;;;;;;;;;;5115104;28;20184;-60
2022/12/11 09:22:53;;;;;;;15.55;8.88;;;;;;;;;;5114997;28;20299;-61
2022/12/11 09:25:20;;;;;;;14.55;9.38;;;;;;;;;;5114958;28;20279;-61
2022/12/11 09:27:47;;;;;;;14.98;8.82;;;;;;;;;;5114843;28;20727;-61
2022/12/11 09:30:15;;;;;;;13.27;9.27;;;;;;;;;;5114987;28;20192;-61
2022/12/11 09:32:42;;;;;;;13.23;9.30;;;;;;;;;;5115001;28;20200;-61
2022/12/11 09:35:11;;;;;;;11.55;9.25;;;;;;;;;;5114898;28;20184;-60
2022/12/11 09:37:37;;;;;;;15.10;9.45;;;;;;;;;;5114786;28;20211;-61
2022/12/11 09:40:05;;;;;;;13.63;9.20;;;;;;;;;;5114911;28;20195;-61
2022/12/11 09:42:46;;;;;;;10.32;7.95;;;;;;;;;;5114849;28;20238;-61
2022/12/11 09:45:14;;;;;;;14.65;9.75;;;;;;;;;;5114650;28;20188;-61
2022/12/11 09:47:43;;;;;;;11.55;8.65;;;;;;;;;;5114714;28;20300;-61
2022/12/11 09:50:15;;;;;;;13.85;9.00;;;;;;;;;;5114610;28;20215;-61
2022/12/11 09:52:49;;;;;;;12.23;9.10;;;;;;;;;;5114559;28;20189;-61
2022/12/11 09:55:18;;;;;;;12.15;9.35;;;;;;;;;;5114640;28;20287;-61
2022/12/11 09:57:49;;;;;;;14.40;9.98;;;;;;;;;;5114471;28;20224;-61
2022/12/11 10:00:27;;;;;;;10.85;8.73;;;;;;;;;;5114401;28;20188;-61
2022/12/11 10:03:12;;;;;;;12.70;8.95;;;;;;;;;;5114235;28;20628;-61
2022/12/11 10:05:46;;;;;;;11.57;8.70;;;;;;;;;;5114301;28;20227;-61
2022/12/11 10:08:16;;;;;;;16.23;9.07;;;;;;;;;;5114333;28;20622;-61
2022/12/11 10:10:44;;;;;;;15.48;8.98;;;;;;;;;;5114144;28;20622;-61
2022/12/11 10:13:14;;;;;;;15.27;10.13;;;;;;;;;;5114138;28;20192;-61
2022/12/11 10:15:43;;;;;;;18.17;9.45;;;;;;;;;;5114811;28;20606;-61
2022/12/11 10:18:13;;;;;;;10.52;8.70;;;;;;;;;;5114184;28;20223;-61
2022/12/11 10:20:43;;;;;;;11.95;8.90;;;;;;;;;;5113254;28;20201;-61
2022/12/11 10:23:14;;;;;;;15.27;10.05;;;;;;;;;;5113920;28;20247;-61
2022/12/11 10:25:42;;;;;;;13.38;9.02;;;;;;;;;;5113806;28;20196;-61
2022/12/11 10:28:12;;;;;;;10.65;8.10;;;;;;;;;;5114032;28;20559;-61
2022/12/11 10:30:41;;;;;;;13.77;9.95;;;;;;;;;;5113956;28;20199;-61
2022/12/11 10:33:15;;;;;;;12.68;8.63;;;;;;;;;;5113824;28;20228;-61
2022/12/11 10:35:45;;;;;;;12.57;8.43;;;;;;;;;;5113849;28;20189;-61
2022/12/11 10:38:14;;;;;;;12.90;8.30;;;;;;;;;;5113952;28;20283;-61
2022/12/11 10:40:43;;;;;;;15.23;8.70;;;;;;;;;;5113884;28;20192;-61
2022/12/11 10:43:10;;;;;;;12.25;8.18;;;;;;;;;;5113671;28;20220;-61
2022/12/11 10:45:37;;;;;;;18.38;9.35;;;;;;;;;;5113709;28;20210;-61
2022/12/11 10:48:05;;;;;;;12.00;8.70;;;;;;;;;;5113582;28;20314;-61
2022/12/11 10:50:32;;;;;;;12.73;9.43;;;;;;;;;;5113613;28;20287;-61
2022/12/11 10:53:01;;;;;;;11.65;8.10;;;;;;;;;;5113439;28;20272;-61
2022/12/11 10:55:28;;;;;;;12.20;8.70;;;;;;;;;;5113460;28;20724;-61
2022/12/11 10:57:58;;;;;;;13.07;9.27;;;;;;;;;;5113368;28;20662;-61
2022/12/11 11:00:30;;;;;;;14.38;8.88;;;;;;;;;;5113517;28;20275;-61
2022/12/11 11:02:58;;;;;;;14.13;9.15;;;;;;;;;;5113234;28;20746;-61
2022/12/11 11:05:29;;;;;;;27.08;10.60;;;;;;;;;;5113248;28;20278;-61
2022/12/11 11:08:04;;;;;;;13.70;8.95;;;;;;;;;;5113525;28;20196;-61
2022/12/11 11:10:31;;;;;;;11.02;9.07;;;;;;;;;;5113463;28;20184;-61
2022/12/11 11:13:01;;;;;;;14.07;8.20;;;;;;;;;;5113325;28;20199;-60
2022/12/11 11:15:29;;;;;;;12.25;8.45;;;;;;;;;;5113270;28;20192;-61
2022/12/11 11:17:57;;;;;;;12.02;8.80;;;;;;;;;;5113165;28;20188;-61
2022/12/11 11:20:25;;;;;;;13.98;9.48;;;;;;;;;;5113438;28;20594;-61
2022/12/11 11:22:53;;;;;;;12.40;9.30;;;;;;;;;;5113179;28;20302;-61
2022/12/11 11:25:22;;;;;;;13.55;7.88;;;;;;;;;;5113154;28;20234;-61
2022/12/11 11:27:50;;;;;;;12.18;8.95;;;;;;;;;;5113132;28;20237;-61
2022/12/11 11:30:19;;;;;;;13.57;8.18;;;;;;;;;;5113115;28;20227;-61
2022/12/11 11:32:46;;;;;;;16.40;10.05;;;;;;;;;;5116239;28;20202;-61
2022/12/11 11:35:18;;;;;;;12.93;9.10;;;;;;;;;;5117253;28;20643;-61
2022/12/11 11:37:46;;;;;;;12.52;9.45;;;;;;;;;;5117154;28;20188;-61
2022/12/11 11:40:15;;;;;;;13.38;9.25;;;;;;;;;;5117340;28;20195;-61
2022/12/11 11:42:47;;;;;;;16.25;10.00;;;;;;;;;;5116999;28;20222;-61
2022/12/11 11:45:17;;;;;;;12.13;8.40;;;;;;;;;;5116952;28;20321;-61
2022/12/11 11:47:49;;;;;;;12.10;9.05;;;;;;;;;;5116996;28;20331;-61
2022/12/11 11:50:18;;;;;;;11.73;9.07;;;;;;;;;;5116995;28;20193;-61
2022/12/11 11:52:49;;;;;;;13.65;9.32;;;;;;;;;;5116926;28;20271;-61
2022/12/11 11:55:19;;;;;;;12.82;8.93;;;;;;;;;;5116737;28;20195;-61
2022/12/11 11:57:50;;;;;;;12.20;9.50;;;;;;;;;;5116575;28;20199;-61
2022/12/11 12:00:19;;;;;;;13.73;9.85;;;;;;;;;;5116988;28;20299;-61
2022/12/11 12:02:47;;;;;;;15.93;9.68;;;;;;;;;;5116592;28;20216;-61
2022/12/11 12:05:15;;;;;;;13.68;10.27;;;;;;;;;;5116632;28;20279;-61
2022/12/11 12:07:46;;;;;;;10.48;9.00;;;;;;;;;;5116787;28;20192;-61
2022/12/11 12:10:18;;;;;;;13.55;8.82;;;;;;;;;;5116794;28;20198;-61
2022/12/11 12:12:50;;;;;;;13.82;9.52;;;;;;;;;;5116602;28;20197;-61
2022/12/11 12:15:29;;;;;;;12.43;9.18;;;;;;;;;;5116554;28;20268;-61
2022/12/11 12:17:56;;;;;;;12.32;9.45;;;;;;;;;;5116392;28;20191;-61
2022/12/11 12:20:30;;;;;;;10.82;8.20;;;;;;;;;;5116201;28;20189;-61
2022/12/11 12:23:01;;;;;;;24.77;10.57;;;;;;;;;;5116295;28;20220;-61
2022/12/11 12:25:32;;;;;;;14.63;9.52;;;;;;;;;;5116292;28;20184;-61
2022/12/11 12:28:06;;;;;;;11.80;9.00;;;;;;;;;;5116045;28;20243;-61
2022/12/11 12:30:38;;;;;;;11.60;9.10;;;;;;;;;;5116035;28;20193;-61
2022/12/11 12:33:13;;;;;;;14.32;8.25;;;;;;;;;;5115894;28;20245;-61
2022/12/11 12:35:43;;;;;;;10.93;8.98;;;;;;;;;;5116108;28;20194;-61
2022/12/11 12:38:14;;;;;;;12.00;8.77;;;;;;;;;;5116113;28;20195;-61
2022/12/11 12:40:48;;;;;;;11.02;9.02;;;;;;;;;;5115997;28;20285;-61
2022/12/11 12:43:25;;;;;;;12.55;9.18;;;;;;;;;;5114894;28;20223;-61
2022/12/11 12:45:55;;;;;;;13.52;9.23;;;;;;;;;;5115854;28;20193;-61
2022/12/11 12:48:24;;;;;;;13.75;9.18;;;;;;;;;;5115752;28;20195;-61
2022/12/11 12:50:51;;;;;;;15.02;10.05;;;;;;;;;;5115717;28;20207;-61
2022/12/11 12:53:21;;;;;;;12.73;9.00;;;;;;;;;;5115776;28;20659;-61
2022/12/11 12:55:48;;;;;;;12.23;10.15;;;;;;;;;;5115538;28;20189;-61
2022/12/11 12:58:27;;;;;;;12.60;8.90;;;;;;;;;;5115606;28;20185;-61
2022/12/11 13:00:54;;;;;;;14.73;9.68;;;;;;;;;;5115554;28;20215;-61
2022/12/11 13:03:25;;;;;;;14.05;9.32;;;;;;;;;;5115329;28;20216;-61
2022/12/11 13:05:56;;;;;;;12.75;10.13;;;;;;;;;;5115484;28;20660;-61
2022/12/11 13:08:25;;;;;;;13.68;10.02;;;;;;;;;;5115301;28;20185;-61
2022/12/11 13:10:59;;;;;;;15.48;11.82;;;;;;;;;;5115240;28;20665;-61
2022/12/11 13:13:34;;;;;;;14.57;10.98;;;;;;;;;;5115500;28;20275;-61
2022/12/11 13:16:21;;;;;;;12.63;9.00;;;;;;;;;;5115236;28;20278;-61
2022/12/11 13:18:48;;;;;;;12.27;10.18;;;;;;;;;;5115398;28;20198;-61
2022/12/11 13:21:29;;;;;;;12.43;9.57;;;;;;;;;;5115255;28;20199;-61
2022/12/11 13:24:13;;;;;;;13.18;9.35;;;;;;;;;;5115030;28;20216;-61
2022/12/11 13:26:40;;;;;;;14.80;10.15;;;;;;;;;;5115036;28;20195;-60
2022/12/11 13:29:28;;;;;;;14.73;9.63;;;;;;;;;;5114807;28;20193;-61
2022/12/11 13:31:57;;;;;;;14.27;9.07;;;;;;;;;;5115023;28;20196;-61
2022/12/11 13:34:24;;;;;;;12.68;9.75;;;;;;;;;;5114954;28;20199;-61
2022/12/11 13:36:54;;;;;;;13.73;10.30;;;;;;;;;;5114827;28;20188;-61
2022/12/11 13:39:23;;;;;;;13.50;9.70;;;;;;;;;;5114676;28;20193;-61
2022/12/11 13:41:52;;;;;;;12.95;9.38;;;;;;;;;;5114482;28;20640;-61
2022/12/11 13:44:22;;;;;;;13.60;10.00;;;;;;;;;;5114585;28;20219;-61
2022/12/11 13:46:50;;;;;;;14.75;9.98;;;;;;;;;;5114484;28;20583;-61
2022/12/11 13:49:20;;;;;;;12.70;9.98;;;;;;;;;;5114500;28;20190;-60
2022/12/11 13:51:52;;;;;;;11.35;8.88;;;;;;;;;;5114512;28;20279;-61
2022/12/11 13:54:19;;;;;;;15.25;10.50;;;;;;;;;;5114324;28;20192;-61
2022/12/11 13:57:10;;;;;;;15.57;10.35;;;;;;;;;;5114596;28;20221;-61
2022/12/11 13:59:42;;;;;;;13.35;10.15;;;;;;;;;;5089742;28;20237;-61
2022/12/11 14:02:14;;;;;;;13.35;10.30;;;;;;;;;;5114463;28;20195;-61
2022/12/11 14:04:42;;;;;;;12.20;10.45;;;;;;;;;;5114147;28;20221;-61
2022/12/11 14:07:10;;;;;;;14.27;11.00;;;;;;;;;;5114233;28;20194;-61
2022/12/11 14:09:38;;;;;;;17.13;11.10;;;;;;;;;;5114296;28;20184;-61
2022/12/11 14:12:05;;;;;;;19.67;11.50;;;;;;;;;;5114292;28;20287;-61
2022/12/11 14:14:40;;;;;;;16.45;11.52;;;;;;;;;;5114157;28;20185;-60
2022/12/11 14:17:14;;;;;;;15.30;10.88;;;;;;;;;;5114036;28;20192;-60
2022/12/11 14:19:45;;;;;;;12.88;9.48;;;;;;;;;;5114175;28;20192;-60
2022/12/11 14:22:18;;;;;;;16.20;10.40;;;;;;;;;;5114147;28;20198;-60
2022/12/11 14:24:48;;;;;;;17.08;11.35;;;;;;;;;;5113796;28;20224;-60
2022/12/11 14:27:16;;;;;;;11.85;9.27;;;;;;;;;;5113846;28;20283;-60
2022/12/11 14:29:43;;;;;;;18.10;10.93;;;;;;;;;;5113726;28;20192;-60
2022/12/11 14:32:18;;;;;;;15.30;10.32;;;;;;;;;;5113977;28;20306;-60
2022/12/11 14:34:46;;;;;;;13.63;9.68;;;;;;;;;;5113769;28;20717;-60
2022/12/11 14:37:14;;;;;;;15.57;10.85;;;;;;;;;;5113687;28;20199;-60
2022/12/11 14:39:44;;;;;;;15.98;10.20;;;;;;;;;;5113615;28;20676;-60
2022/12/11 14:42:12;;;;;;;15.18;10.85;;;;;;;;;;5113487;28;20619;-60
2022/12/11 14:44:44;;;;;;;18.13;12.68;;;;;;;;;;5113695;28;20231;-60